createdAt,value
2023-01-19T00:01:46.586Z,99422.97
2023-01-19T00:04:16.937Z,99427.19
2023-01-19T00:06:45.946Z,99423.91
2023-01-19T00:09:15.659Z,99427.19
2023-01-19T00:11:44.660Z,99410.88
2023-01-19T00:14:13.677Z,99416.00
2023-01-19T00:16:42.699Z,99412.53
2023-01-19T00:19:11.793Z,99406.72
2023-01-19T00:21:42.216Z,99404.84
2023-01-19T00:24:14.007Z,99402.28
2023-01-19T00:26:43.191Z,99404.84
2023-01-19T00:29:12.394Z,99394.63
2023-01-19T00:31:41.795Z,99402.50
2023-01-19T00:34:11.916Z,99384.38
2023-01-19T00:36:42.831Z,99394.44
2023-01-19T00:39:11.825Z,99376.34
2023-01-19T00:41:58.108Z,99376.16
2023-01-19T00:44:27.159Z,99377.78
2023-01-19T00:46:56.161Z,99377.06
2023-01-19T00:49:25.248Z,99378.53
2023-01-19T00:51:55.754Z,99383.66
2023-01-19T00:54:26.855Z,99399.00
2023-01-19T00:56:56.410Z,99386.00
2023-01-19T00:59:26.024Z,99395.53
2023-01-19T01:01:55.247Z,99392.03
2023-01-19T01:04:24.355Z,99375.06
2023-01-19T01:06:53.470Z,99378.16
2023-01-19T01:09:24.432Z,99382.00
2023-01-19T01:11:53.376Z,99372.66
2023-01-19T01:14:22.441Z,99377.78
2023-01-19T01:16:51.562Z,99378.53
2023-01-19T01:19:20.582Z,99376.69
2023-01-19T01:21:49.759Z,99374.84
2023-01-19T01:24:19.206Z,99374.84
2023-01-19T01:26:50.184Z,99376.34
2023-01-19T01:29:19.143Z,99376.34
2023-01-19T01:31:48.125Z,99367.91
2023-01-19T01:34:17.607Z,99361.88
2023-01-19T01:36:46.792Z,99371.22
2023-01-19T01:39:15.735Z,99366.09
2023-01-19T01:41:44.818Z,99372.13
2023-01-19T01:44:50.189Z,99388.41
2023-01-19T01:47:27.259Z,99372.66
2023-01-19T01:50:01.791Z,99364.97
2023-01-19T01:52:34.464Z,99386.19
2023-01-19T01:55:07.351Z,99388.22
2023-01-19T01:57:40.631Z,99370.31
2023-01-19T02:00:12.725Z,99377.03
2023-01-19T02:02:55.152Z,99382.38
2023-01-19T02:05:28.120Z,99371.75
2023-01-19T02:08:18.523Z,99373.94
2023-01-19T02:11:06.192Z,99382.19
2023-01-19T02:13:38.383Z,99379.41
2023-01-19T02:16:10.120Z,99383.63
2023-01-19T02:18:39.830Z,99382.34
2023-01-19T02:21:13.682Z,99383.59
2023-01-19T02:23:46.456Z,99374.66
2023-01-19T02:26:20.499Z,99370.25
2023-01-19T02:28:53.495Z,99379.22
2023-01-19T02:31:22.511Z,99373.72
2023-01-19T02:33:51.987Z,99367.50
2023-01-19T02:36:24.988Z,99362.94
2023-01-19T02:38:58.044Z,99363.47
2023-01-19T02:41:30.542Z,99365.84
2023-01-19T02:44:00.570Z,99367.84
2023-01-19T02:46:29.871Z,99359.97
2023-01-19T02:49:00.490Z,99350.31
2023-01-19T02:51:30.104Z,99358.50
2023-01-19T02:54:20.306Z,99352.84
2023-01-19T02:57:06.665Z,99358.69
2023-01-19T02:59:51.495Z,99375.88
2023-01-19T03:02:33.419Z,99387.94
2023-01-19T03:05:17.579Z,99389.75
2023-01-19T03:07:57.237Z,99393.06
2023-01-19T03:10:35.890Z,99387.72
2023-01-19T03:13:12.708Z,99385.69
2023-01-19T03:15:48.871Z,99386.44
2023-01-19T03:18:22.768Z,99374.34
2023-01-19T03:20:54.893Z,99379.13
2023-01-19T03:23:28.262Z,99369.81
2023-01-19T03:26:01.293Z,99376.72
2023-01-19T03:28:33.953Z,99379.13
2023-01-19T03:31:08.335Z,99375.44
2023-01-19T03:33:42.332Z,99388.22
2023-01-19T03:36:17.694Z,99383.63
2023-01-19T03:38:49.723Z,99373.75
2023-01-19T03:41:23.149Z,99375.63
2023-01-19T03:43:53.757Z,99374.69
2023-01-19T03:46:23.878Z,99396.22
2023-01-19T03:48:53.568Z,99395.47
2023-01-19T03:51:23.467Z,99407.91
2023-01-19T03:53:52.455Z,99415.03
2023-01-19T03:56:24.633Z,99415.25
2023-01-19T03:58:55.592Z,99426.38
2023-01-19T04:01:25.911Z,99445.72
2023-01-19T04:03:55.416Z,99455.25
2023-01-19T04:06:24.643Z,99448.66
2023-01-19T04:08:54.126Z,99445.56
2023-01-19T04:11:24.637Z,99439.19
2023-01-19T04:13:53.732Z,99433.00
2023-01-19T04:16:23.590Z,99423.69
2023-01-19T04:18:52.837Z,99425.16
2023-01-19T04:21:21.802Z,99427.72
2023-01-19T04:23:51.037Z,99435.59
2023-01-19T04:26:20.028Z,99441.28
2023-01-19T04:28:50.352Z,99447.50
2023-01-19T04:31:20.703Z,99450.25
2023-01-19T04:33:50.394Z,99461.59
2023-01-19T04:36:19.468Z,99469.44
2023-01-19T04:38:48.817Z,99472.91
2023-01-19T04:41:18.503Z,99472.00
2023-01-19T04:43:48.205Z,99460.28
2023-01-19T04:46:18.592Z,99462.19
2023-01-19T04:48:47.624Z,99467.94
2023-01-19T04:51:16.542Z,99480.38
2023-01-19T04:53:46.141Z,99465.97
2023-01-19T04:56:15.202Z,99464.66
2023-01-19T04:58:44.226Z,99469.22
2023-01-19T05:01:13.269Z,99470.88
2023-01-19T05:03:43.723Z,99471.75
2023-01-19T05:06:12.906Z,99478.34
2023-01-19T05:08:43.376Z,99477.06
2023-01-19T05:11:13.525Z,99465.00
2023-01-19T05:13:42.569Z,99459.88
2023-01-19T05:16:12.348Z,99449.06
2023-01-19T05:18:43.393Z,99459.31
2023-01-19T05:21:12.311Z,99470.47
2023-01-19T05:23:41.355Z,99462.63
2023-01-19T05:26:10.549Z,99463.34
2023-01-19T05:28:39.548Z,99465.91
2023-01-19T05:31:08.871Z,99473.25
2023-01-19T05:33:38.001Z,99467.22
2023-01-19T05:36:08.708Z,99488.59
2023-01-19T05:38:37.794Z,99493.72
2023-01-19T05:41:07.182Z,99498.09
2023-01-19T05:43:36.166Z,99498.84
2023-01-19T05:46:05.846Z,99487.69
2023-01-19T05:48:35.003Z,99484.00
2023-01-19T05:51:05.208Z,99480.72
2023-01-19T05:53:35.627Z,99486.03
2023-01-19T05:56:06.519Z,99485.84
2023-01-19T05:58:35.827Z,99507.97
2023-01-19T06:01:06.108Z,99500.28
2023-01-19T06:03:36.879Z,99501.19
2023-01-19T06:06:06.163Z,99503.03
2023-01-19T06:08:36.735Z,99509.06
2023-01-19T06:11:07.764Z,99518.41
2023-01-19T06:13:36.909Z,99523.91
2023-01-19T06:16:06.203Z,99527.56
2023-01-19T06:18:35.207Z,99535.06
2023-01-19T06:21:07.950Z,99540.53
2023-01-19T06:23:38.407Z,99532.16
2023-01-19T06:26:07.733Z,99549.34
2023-01-19T06:28:36.686Z,99562.31
2023-01-19T06:31:05.750Z,99553.00
2023-01-19T06:33:35.847Z,99549.72
2023-01-19T06:36:05.458Z,99556.13
2023-01-19T06:38:34.521Z,99574.97
2023-01-19T06:41:04.953Z,99578.44
2023-01-19T06:43:33.990Z,99573.50
2023-01-19T06:46:04.148Z,99565.66
2023-01-19T06:48:33.195Z,99562.19
2023-01-19T06:51:02.182Z,99562.56
2023-01-19T06:53:31.217Z,99564.41
2023-01-19T06:56:01.607Z,99556.38
2023-01-19T06:58:34.953Z,99565.13
2023-01-19T07:01:04.715Z,99556.75
2023-01-19T07:03:34.746Z,99548.50
2023-01-19T07:06:04.527Z,99558.97
2023-01-19T07:08:34.673Z,99570.50
2023-01-19T07:11:26.403Z,99571.94
2023-01-19T07:13:56.703Z,99563.75
2023-01-19T07:16:26.303Z,99579.66
2023-01-19T07:18:55.427Z,99576.34
2023-01-19T07:21:24.760Z,99575.44
2023-01-19T07:23:54.193Z,99566.31
2023-01-19T07:26:25.237Z,99580.38
2023-01-19T07:28:54.197Z,99580.22
2023-01-19T07:31:24.682Z,99580.03
2023-01-19T07:33:53.698Z,99595.75
2023-01-19T07:36:22.795Z,99582.97
2023-01-19T07:38:51.996Z,99573.66
2023-01-19T07:41:21.077Z,99603.66
2023-01-19T07:43:53.621Z,99598.19
2023-01-19T07:46:22.713Z,99598.91
2023-01-19T07:48:53.179Z,99597.81
2023-01-19T07:51:22.266Z,99604.03
2023-01-19T07:53:52.964Z,99608.63
2023-01-19T07:56:22.661Z,99639.22
2023-01-19T07:58:52.644Z,99640.13
2023-01-19T08:01:21.771Z,99650.75
2023-01-19T08:03:52.391Z,99649.84
2023-01-19T08:06:23.443Z,99654.06
2023-01-19T08:08:53.362Z,99656.41
2023-01-19T08:11:22.467Z,99650.91
2023-01-19T08:13:51.635Z,99627.13
2023-01-19T08:16:20.616Z,99640.13
2023-01-19T08:18:49.571Z,99658.47
2023-01-19T08:21:20.342Z,99666.69
2023-01-19T08:23:54.071Z,99672.53
2023-01-19T08:26:27.668Z,99669.63
2023-01-19T08:28:57.805Z,99672.94
2023-01-19T08:31:27.210Z,99661.00
2023-01-19T08:33:56.634Z,99661.91
2023-01-19T08:36:27.622Z,99675.28
2023-01-19T08:38:56.576Z,99676.75
2023-01-19T08:41:25.491Z,99661.56
2023-01-19T08:43:54.690Z,99678.78
2023-01-19T08:46:23.946Z,99687.41
2023-01-19T08:48:52.993Z,99691.81
2023-01-19T08:51:22.580Z,99689.09
2023-01-19T08:53:53.735Z,99688.56
2023-01-19T08:56:22.643Z,99692.91
2023-01-19T08:59:07.620Z,99691.44
2023-01-19T09:01:38.336Z,99681.41
2023-01-19T09:04:07.695Z,99689.63
2023-01-19T09:06:36.809Z,99672.03
2023-01-19T09:09:07.306Z,99679.56
2023-01-19T09:11:36.341Z,99685.97
2023-01-19T09:14:05.893Z,99669.28
2023-01-19T09:16:34.925Z,99672.94
2023-01-19T09:19:03.870Z,99667.81
2023-01-19T09:21:32.984Z,99670.72
2023-01-19T09:24:02.033Z,99679.53
2023-01-19T09:26:33.274Z,99676.63
2023-01-19T09:29:02.376Z,99681.75
2023-01-19T09:31:31.465Z,99677.38
2023-01-19T09:34:00.508Z,99678.63
2023-01-19T09:36:30.328Z,99689.81
2023-01-19T09:38:59.768Z,99681.91
2023-01-19T09:41:29.016Z,99688.31
2023-01-19T09:44:01.674Z,99680.47
2023-01-19T09:46:39.002Z,99666.00
2023-01-19T09:49:14.950Z,99659.75
2023-01-19T09:51:48.301Z,99661.25
2023-01-19T09:54:19.211Z,99654.28
2023-01-19T09:56:52.684Z,99651.69
2023-01-19T09:59:26.141Z,99665.09
2023-01-19T10:02:14.514Z,99672.97
2023-01-19T10:04:45.085Z,99658.31
2023-01-19T10:07:25.293Z,99665.09
2023-01-19T10:10:18.074Z,99671.88
2023-01-19T10:12:59.096Z,99668.38
2023-01-19T10:15:44.158Z,99654.28
2023-01-19T10:18:20.208Z,99653.19
2023-01-19T10:20:52.205Z,99661.59
2023-01-19T10:23:37.881Z,99662.34
2023-01-19T10:26:09.672Z,99667.31
2023-01-19T10:28:41.127Z,99670.44
2023-01-19T10:31:12.885Z,99664.00
2023-01-19T10:33:42.197Z,99661.28
2023-01-19T10:36:18.985Z,99665.28
2023-01-19T10:38:48.847Z,99662.34
2023-01-19T10:41:22.429Z,99672.59
2023-01-19T10:44:00.944Z,99687.25
2023-01-19T10:46:38.329Z,99676.28
2023-01-19T10:49:08.265Z,99659.03
2023-01-19T10:51:49.075Z,99651.16
2023-01-19T10:54:18.869Z,99652.06
2023-01-19T10:56:54.744Z,99654.09
2023-01-19T10:59:35.645Z,99662.91
2023-01-19T11:02:18.626Z,99660.13
2023-01-19T11:04:50.186Z,99662.16
2023-01-19T11:07:22.988Z,99663.25
2023-01-19T11:10:12.094Z,99665.44
2023-01-19T11:12:43.554Z,99660.84
2023-01-19T11:15:17.809Z,99670.19
2023-01-19T11:17:48.848Z,99662.50
2023-01-19T11:20:23.690Z,99666.19
2023-01-19T11:23:06.588Z,99681.00
2023-01-19T11:25:37.449Z,99689.59
2023-01-19T11:28:06.975Z,99681.19
2023-01-19T11:30:36.899Z,99672.56
2023-01-19T11:33:08.197Z,99694.94
2023-01-19T11:35:39.870Z,99696.59
2023-01-19T11:38:18.307Z,99699.69
2023-01-19T11:40:56.888Z,99708.81
2023-01-19T11:43:39.809Z,99711.94
2023-01-19T11:46:18.893Z,99711.94
2023-01-19T11:48:56.830Z,99702.59
2023-01-19T11:51:29.770Z,99703.34
2023-01-19T11:53:59.614Z,99708.47
2023-01-19T11:56:30.539Z,99713.22
2023-01-19T11:58:59.694Z,99726.94
2023-01-19T12:01:34.268Z,99725.81
2023-01-19T12:04:13.307Z,99732.81
2023-01-19T12:06:47.828Z,99734.06
2023-01-19T12:09:21.515Z,99728.56
2023-01-19T12:11:56.369Z,99727.44
2023-01-19T12:14:30.287Z,99725.09
2023-01-19T12:17:02.516Z,99723.44
2023-01-19T12:19:41.360Z,99735.91
2023-01-19T12:22:15.439Z,99725.63
2023-01-19T12:24:55.003Z,99737.34
2023-01-19T12:27:39.004Z,99737.69
2023-01-19T12:30:18.407Z,99744.84
2023-01-19T12:32:47.930Z,99756.03
2023-01-19T12:35:53.585Z,99762.63
2023-01-19T12:38:46.956Z,99772.88
2023-01-19T12:41:21.595Z,99766.28
2023-01-19T12:44:11.660Z,99776.72
2023-01-19T12:46:43.586Z,99774.53
2023-01-19T12:49:23.964Z,99765.53
2023-01-19T12:51:55.232Z,99767.34
2023-01-19T12:54:39.982Z,99776.88
2023-01-19T12:57:17.079Z,99780.75
2023-01-19T12:59:46.560Z,99782.22
2023-01-19T13:02:51.855Z,99771.97
2023-01-19T13:05:42.197Z,99777.59
2023-01-19T13:08:21.985Z,99766.59
2023-01-19T13:11:18.386Z,99770.28
2023-01-19T13:14:27.954Z,99766.22
2023-01-19T13:17:33.364Z,99755.41
2023-01-19T13:20:20.704Z,99758.16
2023-01-19T13:23:14.411Z,99748.59
2023-01-19T13:25:49.127Z,99746.78
2023-01-19T13:28:21.921Z,99743.81
2023-01-19T13:30:58.467Z,99753.91
2023-01-19T13:33:32.516Z,99761.38
2023-01-19T13:36:02.051Z,99753.69
2023-01-19T13:38:33.181Z,99761.00
2023-01-19T13:41:04.902Z,99749.13
2023-01-19T13:43:40.081Z,99769.78
2023-01-19T13:46:13.049Z,99756.06
2023-01-19T13:48:55.243Z,99758.25
2023-01-19T13:51:25.058Z,99756.59
2023-01-19T13:53:58.389Z,99751.28
2023-01-19T13:56:28.842Z,99742.69
2023-01-19T13:59:13.424Z,99748.00
2023-01-19T14:01:46.356Z,99755.69
2023-01-19T14:04:30.999Z,99756.59
2023-01-19T14:07:03.583Z,99760.25
2023-01-19T14:09:32.948Z,99760.09
2023-01-19T14:12:17.708Z,99753.34
2023-01-19T14:14:48.803Z,99767.97
2023-01-19T14:17:26.698Z,99773.09
2023-01-19T14:19:57.573Z,99767.22
2023-01-19T14:22:41.792Z,99771.63
2023-01-19T14:25:29.114Z,99784.44
2023-01-19T14:28:40.864Z,99787.00
2023-01-19T14:31:26.800Z,99804.22
2023-01-19T14:33:58.923Z,99800.94
2023-01-19T14:36:36.352Z,99806.97
2023-01-19T14:39:07.511Z,99814.88
2023-01-19T14:41:44.982Z,99809.75
2023-01-19T14:44:23.106Z,99805.53
2023-01-19T14:46:54.888Z,99796.34
2023-01-19T14:49:35.893Z,99793.59
2023-01-19T14:52:08.921Z,99801.28
2023-01-19T14:54:42.173Z,99807.50
2023-01-19T14:57:14.802Z,99796.34
2023-01-19T14:59:48.668Z,99814.09
2023-01-19T15:02:20.076Z,99821.03
2023-01-19T15:04:52.263Z,99804.00
2023-01-19T15:07:25.207Z,99814.66
2023-01-19T15:09:57.071Z,99812.63
2023-01-19T15:12:30.813Z,99816.66
2023-01-19T15:15:00.612Z,99807.50
2023-01-19T15:17:32.439Z,99817.97
2023-01-19T15:20:02.164Z,99800.19
2023-01-19T15:22:32.667Z,99788.47
2023-01-19T15:25:02.367Z,99770.34
2023-01-19T15:27:32.423Z,99761.38
2023-01-19T15:30:01.768Z,99777.09
2023-01-19T15:32:34.697Z,99768.50
2023-01-19T15:35:04.431Z,99757.34
2023-01-19T15:37:34.033Z,99767.06
2023-01-19T15:40:03.735Z,99784.25
2023-01-19T15:42:34.772Z,99806.06
2023-01-19T15:45:04.087Z,99810.78
2023-01-19T15:47:35.257Z,99820.31
2023-01-19T15:50:05.469Z,99796.88
2023-01-19T15:52:37.673Z,99791.75
2023-01-19T15:55:08.856Z,99794.91
2023-01-19T15:57:39.001Z,99790.63
2023-01-19T16:00:11.272Z,99784.06
2023-01-19T16:02:52.451Z,99777.31
2023-01-19T16:05:26.008Z,99773.63
2023-01-19T16:08:01.892Z,99774.53
2023-01-19T16:10:31.549Z,99772.91
2023-01-19T16:13:02.368Z,99759.16
2023-01-19T16:15:36.007Z,99755.91
2023-01-19T16:18:17.797Z,99749.28
2023-01-19T16:20:48.824Z,99746.00
2023-01-19T16:23:34.043Z,99751.59
2023-01-19T16:26:08.695Z,99758.88
2023-01-19T16:28:41.865Z,99752.72
2023-01-19T16:31:11.078Z,99753.59
2023-01-19T16:33:45.788Z,99740.56
2023-01-19T16:36:28.909Z,99753.38
2023-01-19T16:39:01.179Z,99750.50
2023-01-19T16:41:31.616Z,99736.19
2023-01-19T16:44:03.693Z,99735.78
2023-01-19T16:46:35.403Z,99745.28
2023-01-19T16:49:08.087Z,99734.31
2023-01-19T16:51:37.374Z,99740.88
2023-01-19T16:54:07.252Z,99737.41
2023-01-19T16:56:42.898Z,99744.72
2023-01-19T16:59:15.845Z,99747.47
2023-01-19T17:01:46.092Z,99751.69
2023-01-19T17:04:32.502Z,99747.88
2023-01-19T17:07:02.054Z,99738.53
2023-01-19T17:09:34.324Z,99735.22
2023-01-19T17:12:12.735Z,99722.94
2023-01-19T17:14:43.251Z,99724.59
2023-01-19T17:17:12.516Z,99723.69
2023-01-19T17:19:45.314Z,99728.81
2023-01-19T17:22:15.201Z,99732.09
2023-01-19T17:24:45.242Z,99719.81
2023-01-19T17:27:14.505Z,99723.28
2023-01-19T17:29:43.682Z,99718.56
2023-01-19T17:32:12.792Z,99716.72
2023-01-19T17:34:43.332Z,99709.44
2023-01-19T17:37:12.385Z,99713.44
2023-01-19T17:39:41.604Z,99703.19
2023-01-19T17:42:10.644Z,99705.00
2023-01-19T17:44:39.609Z,99705.75
2023-01-19T17:47:08.614Z,99702.78
2023-01-19T17:49:37.733Z,99713.44
2023-01-19T17:52:08.337Z,99712.00
2023-01-19T17:54:52.215Z,99713.44
2023-01-19T17:57:21.221Z,99724.41
2023-01-19T17:59:50.313Z,99709.22
2023-01-19T18:02:24.407Z,99710.88
2023-01-19T18:04:53.822Z,99704.31
2023-01-19T18:07:24.222Z,99724.06
2023-01-19T18:09:56.064Z,99710.34
2023-01-19T18:12:25.883Z,99722.03
2023-01-19T18:15:10.940Z,99720.38
2023-01-19T18:17:42.230Z,99724.25
2023-01-19T18:20:13.104Z,99732.47
2023-01-19T18:22:43.930Z,99726.63
2023-01-19T18:25:12.986Z,99732.13
2023-01-19T18:27:42.484Z,99715.63
2023-01-19T18:30:12.843Z,99716.38
2023-01-19T18:32:42.037Z,99710.44
2023-01-19T18:35:13.809Z,99708.97
2023-01-19T18:37:44.714Z,99701.06
2023-01-19T18:40:14.652Z,99701.41
2023-01-19T18:42:47.687Z,99700.72
2023-01-19T18:45:35.443Z,99703.69
2023-01-19T18:48:05.515Z,99697.44
2023-01-19T18:50:34.710Z,99707.31
2023-01-19T18:53:05.231Z,99697.78
2023-01-19T18:55:34.373Z,99701.06
2023-01-19T18:58:04.358Z,99701.41
2023-01-19T19:00:33.408Z,99699.03
2023-01-19T19:03:02.599Z,99705.63
2023-01-19T19:05:31.654Z,99690.06
2023-01-19T19:08:00.765Z,99685.66
2023-01-19T19:10:31.558Z,99681.28
2023-01-19T19:13:01.043Z,99680.53
2023-01-19T19:15:30.458Z,99675.41
2023-01-19T19:18:00.116Z,99679.78
2023-01-19T19:20:29.119Z,99680.00
2023-01-19T19:22:58.182Z,99681.63
2023-01-19T19:25:27.173Z,99679.06
2023-01-19T19:27:57.656Z,99678.75
2023-01-19T19:30:26.684Z,99682.75
2023-01-19T19:33:02.046Z,99686.97
2023-01-19T19:35:31.150Z,99683.47
2023-01-19T19:38:00.295Z,99682.91
2023-01-19T19:40:30.308Z,99692.47
2023-01-19T19:43:00.759Z,99686.59
2023-01-19T19:45:30.574Z,99695.94
2023-01-19T19:47:59.700Z,99696.69
2023-01-19T19:50:28.849Z,99695.59
2023-01-19T19:52:58.945Z,99704.19
2023-01-19T19:55:28.179Z,99706.22
2023-01-19T19:57:57.478Z,99704.94
2023-01-19T20:00:27.964Z,99705.84
2023-01-19T20:02:57.030Z,99709.31
2023-01-19T20:05:26.367Z,99706.94
2023-01-19T20:07:55.372Z,99701.09
2023-01-19T20:10:25.972Z,99697.78
2023-01-19T20:12:55.083Z,99708.06
2023-01-19T20:15:24.030Z,99695.97
2023-01-19T20:17:56.224Z,99708.06
2023-01-19T20:20:25.353Z,99702.00
2023-01-19T20:22:54.387Z,99693.59
2023-01-19T20:25:23.435Z,99704.22
2023-01-19T20:27:52.660Z,99696.91
2023-01-19T20:30:22.449Z,99703.69
2023-01-19T20:33:00.328Z,99680.78
2023-01-19T20:35:29.420Z,99690.13
2023-01-19T20:37:58.446Z,99683.53
2023-01-19T20:40:27.454Z,99677.31
2023-01-19T20:42:56.598Z,99665.59
2023-01-19T20:45:26.385Z,99661.03
2023-01-19T20:47:56.806Z,99663.38
2023-01-19T20:50:25.791Z,99661.19
2023-01-19T20:52:54.687Z,99664.88
2023-01-19T20:55:23.726Z,99671.63
2023-01-19T20:57:52.707Z,99678.78
2023-01-19T21:00:22.207Z,99683.91
2023-01-19T21:02:51.377Z,99670.56
2023-01-19T21:05:21.963Z,99678.78
2023-01-19T21:08:06.253Z,99692.50
2023-01-19T21:10:37.794Z,99701.13
2023-01-19T21:13:06.744Z,99695.28
2023-01-19T21:15:35.870Z,99689.59
2023-01-19T21:18:05.294Z,99693.06
2023-01-19T21:20:35.686Z,99682.81
2023-01-19T21:23:04.647Z,99696.38
2023-01-19T21:25:33.852Z,99688.69
2023-01-19T21:28:02.925Z,99673.28
2023-01-19T21:30:31.899Z,99676.78
2023-01-19T21:33:02.396Z,99674.22
2023-01-19T21:35:31.412Z,99679.16
2023-01-19T21:38:01.924Z,99675.34
2023-01-19T21:40:31.091Z,99681.38
2023-01-19T21:43:00.085Z,99680.63
2023-01-19T21:45:29.135Z,99694.75
2023-01-19T21:47:58.194Z,99698.44
2023-01-19T21:50:27.171Z,99689.09
2023-01-19T21:52:56.099Z,99686.31
2023-01-19T21:55:26.563Z,99685.41
2023-01-19T21:57:55.768Z,99669.09
2023-01-19T22:00:25.037Z,99668.56
2023-01-19T22:03:03.364Z,99654.09
2023-01-19T22:05:36.973Z,99657.56
2023-01-19T22:08:06.606Z,99648.78
2023-01-19T22:10:38.652Z,99649.88
2023-01-19T22:13:08.097Z,99660.13
2023-01-19T22:15:37.318Z,99655.00
2023-01-19T22:18:06.434Z,99668.94
2023-01-19T22:20:35.406Z,99666.38
2023-01-19T22:23:04.440Z,99664.16
2023-01-19T22:25:34.440Z,99654.28
2023-01-19T22:28:04.853Z,99655.00
2023-01-19T22:30:33.898Z,99660.50
2023-01-19T22:33:02.999Z,99664.16
2023-01-19T22:35:32.434Z,99674.09
2023-01-19T22:38:02.282Z,99663.84
2023-01-19T22:40:31.943Z,99656.13
2023-01-19T22:43:01.013Z,99658.88
2023-01-19T22:45:31.401Z,99657.97
2023-01-19T22:48:00.427Z,99651.34
2023-01-19T22:50:29.346Z,99657.59
2023-01-19T22:52:58.785Z,99665.28
2023-01-19T22:55:30.580Z,99657.59
2023-01-19T22:57:59.746Z,99665.28
2023-01-19T23:00:28.703Z,99667.88
2023-01-19T23:02:59.039Z,99664.56
2023-01-19T23:05:28.515Z,99655.41
2023-01-19T23:07:57.523Z,99661.06
2023-01-19T23:10:26.544Z,99663.81
2023-01-19T23:12:55.509Z,99663.81
2023-01-19T23:15:24.534Z,99665.69
2023-01-19T23:17:54.105Z,99659.63
2023-01-19T23:20:24.559Z,99669.31
2023-01-19T23:22:54.117Z,99678.13
2023-01-19T23:25:23.225Z,99679.22
2023-01-19T23:27:52.198Z,99681.78
2023-01-19T23:30:21.359Z,99679.22
2023-01-19T23:32:50.741Z,99692.03
2023-01-19T23:35:19.752Z,99696.81
2023-01-19T23:37:50.223Z,99687.28
2023-01-19T23:40:19.587Z,99685.84
2023-01-19T23:42:48.663Z,99690.97
2023-01-19T23:45:17.702Z,99685.09
2023-01-19T23:47:46.987Z,99689.69
2023-01-19T23:50:15.945Z,99686.19
2023-01-19T23:52:44.895Z,99676.28
2023-01-19T23:55:16.833Z,99680.72
2023-01-19T23:57:45.786Z,99684.75
